Time;durP1;ratioP1;P1;durP2;ratioP2;P2;SDS_P1;SDS_P2;PMS_P1;PMS_P2;Temp;Humidity;BMP_temperature;BMP_pressure;BME280_temperature;BME280_humidity;BME280_pressure;Samples;Min_cycle;Max_cycle;Signal;HPM_P1;HPM_P2
2023/07/05 00:01:30;;;;;;;8.48;4.80;;;17.80;99.90;;;;;;5027900;28;20235;-74
2023/07/05 00:03:56;;;;;;;11.30;5.45;;;17.70;99.90;;;;;;5024381;28;20235;-73
2023/07/05 00:06:22;;;;;;;10.30;5.40;;;17.70;99.90;;;;;;5036663;28;20204;-73
2023/07/05 00:08:48;;;;;;;9.52;5.75;;;17.70;99.90;;;;;;5032400;28;20438;-74
2023/07/05 00:11:14;;;;;;;8.45;5.10;;;17.70;99.90;;;;;;5023355;28;20208;-74
2023/07/05 00:13:40;;;;;;;10.45;5.28;;;17.80;99.90;;;;;;5028358;28;20311;-74
2023/07/05 00:16:09;;;;;;;9.57;5.07;;;17.80;99.90;;;;;;5024951;28;20239;-74
2023/07/05 00:18:36;;;;;;;10.48;5.20;;;17.70;99.90;;;;;;5025097;28;20208;-75
2023/07/05 00:21:05;;;;;;;8.43;4.70;;;17.70;99.90;;;;;;5034956;28;20208;-74
2023/07/05 00:23:32;;;;;;;9.48;5.28;;;17.60;99.90;;;;;;5030744;28;20230;-74
2023/07/05 00:25:58;;;;;;;7.13;4.97;;;17.50;99.90;;;;;;5029977;28;20168;-74
2023/07/05 00:28:24;;;;;;;11.25;5.47;;;17.50;99.90;;;;;;5030058;28;20586;-72
2023/07/05 00:30:49;;;;;;;7.35;4.75;;;17.50;99.90;;;;;;5029717;28;20246;-74
2023/07/05 00:33:16;;;;;;;11.07;4.72;;;17.50;99.90;;;;;;5028429;28;20861;-73
2023/07/05 00:35:49;;;;;;;8.02;5.55;;;17.50;99.90;;;;;;5028624;28;20204;-75
2023/07/05 00:38:15;;;;;;;9.18;5.22;;;17.50;99.90;;;;;;5031036;28;20187;-74
2023/07/05 00:40:41;;;;;;;9.13;5.38;;;17.50;99.90;;;;;;5035929;28;20242;-75
2023/07/05 00:43:08;;;;;;;9.55;5.05;;;17.40;99.90;;;;;;5030113;28;20627;-75
2023/07/05 00:45:57;;;;;;;11.48;5.15;;;17.40;99.90;;;;;;5027467;28;20212;-75
2023/07/05 00:48:29;;;;;;;9.48;5.13;;;17.40;99.90;;;;;;5020013;28;20610;-74
2023/07/05 00:50:58;;;;;;;11.40;5.00;;;17.40;99.90;;;;;;5024952;28;20307;-74
2023/07/05 00:53:25;;;;;;;13.15;5.18;;;17.40;99.90;;;;;;5027680;28;20208;-73
2023/07/05 00:56:00;;;;;;;7.15;4.53;;;17.40;99.90;;;;;;5029460;28;20234;-74
2023/07/05 00:58:26;;;;;;;9.02;4.80;;;17.40;99.90;;;;;;5026069;28;20212;-73
2023/07/05 01:00:52;;;;;;;8.07;5.15;;;17.30;99.90;;;;;;5028876;28;20678;-75
2023/07/05 01:03:20;;;;;;;8.68;4.50;;;17.30;99.90;;;;;;5027342;28;20244;-75
2023/07/05 01:05:52;;;;;;;8.40;5.13;;;17.30;99.90;;;;;;5023687;28;20616;-74
2023/07/05 01:08:18;;;;;;;7.63;4.20;;;17.40;99.90;;;;;;5027913;28;20670;-74
2023/07/05 01:10:52;;;;;;;7.97;4.70;;;17.30;99.90;;;;;;5029116;28;20203;-75
2023/07/05 01:13:36;;;;;;;7.55;5.20;;;17.20;99.90;;;;;;5029267;28;20251;-73
2023/07/05 01:16:23;;;;;;;10.18;4.50;;;17.20;99.90;;;;;;5022479;28;20212;-74
2023/07/05 01:18:48;;;;;;;7.75;4.00;;;17.20;99.90;;;;;;5024163;28;20211;-75
2023/07/05 01:21:34;;;;;;;11.20;4.70;;;17.30;99.90;;;;;;5024675;28;20590;-74
2023/07/05 01:24:02;;;;;;;8.05;5.18;;;17.30;99.90;;;;;;5025448;28;20207;-74
2023/07/05 01:26:47;;;;;;;14.35;4.40;;;17.30;99.90;;;;;;5027999;28;20172;-73
2023/07/05 01:29:41;;;;;;;7.97;4.78;;;17.30;99.90;;;;;;5026107;28;20172;-75
2023/07/05 01:32:12;;;;;;;10.40;4.65;;;17.20;99.90;;;;;;5026865;28;20244;-75
2023/07/05 01:34:42;;;;;;;7.13;4.18;;;17.10;99.90;;;;;;5024818;28;20213;-75
2023/07/05 01:37:20;;;;;;;7.15;4.60;;;17.20;99.90;;;;;;5027425;28;20243;-74
2023/07/05 01:39:45;;;;;;;11.07;5.28;;;17.10;99.90;;;;;;5030350;28;20204;-75
2023/07/05 01:42:11;;;;;;;9.70;4.72;;;17.20;99.90;;;;;;5027162;28;20200;-74
2023/07/05 01:44:37;;;;;;;10.02;5.13;;;17.10;99.90;;;;;;5027642;28;20637;-75
2023/07/05 01:47:15;;;;;;;9.18;4.55;;;17.00;99.90;;;;;;5029097;28;20271;-75
2023/07/05 01:49:55;;;;;;;9.40;4.60;;;17.10;99.90;;;;;;5028807;28;20230;-75
2023/07/05 01:52:31;;;;;;;10.63;4.57;;;17.10;99.90;;;;;;5027608;28;20200;-74
2023/07/05 01:55:10;;;;;;;9.63;5.15;;;17.20;99.90;;;;;;5025262;28;20215;-74
2023/07/05 01:57:54;;;;;;;7.18;4.90;;;17.10;99.90;;;;;;5018831;28;20218;-74
2023/07/05 02:00:23;;;;;;;8.90;4.43;;;17.00;99.90;;;;;;5041473;28;20208;-74
2023/07/05 02:03:11;;;;;;;11.63;5.00;;;17.10;99.90;;;;;;5028203;28;20204;-75
2023/07/05 02:05:37;;;;;;;12.30;5.35;;;17.10;99.90;;;;;;5029840;28;20683;-75
2023/07/05 02:08:04;;;;;;;10.45;4.72;;;17.10;99.90;;;;;;5025785;28;20183;-75
2023/07/05 02:10:30;;;;;;;9.93;4.88;;;17.10;99.90;;;;;;5021521;28;20212;-74
2023/07/05 02:12:57;;;;;;;9.27;4.43;;;17.10;99.90;;;;;;5034888;28;20869;-75
2023/07/05 02:15:23;;;;;;;7.88;4.45;;;17.20;99.90;;;;;;5035696;28;20251;-75
2023/07/05 02:17:49;;;;;;;9.00;4.80;;;17.10;99.90;;;;;;5031675;28;20205;-74
2023/07/05 02:20:15;;;;;;;8.93;4.57;;;17.10;99.90;;;;;;5030970;28;20183;-75
2023/07/05 02:22:41;;;;;;;7.35;4.45;;;17.10;99.90;;;;;;5033031;28;20578;-74
2023/07/05 02:25:07;;;;;;;10.63;4.70;;;17.10;99.90;;;;;;5029567;28;20222;-74
2023/07/05 02:27:32;;;;;;;8.35;4.65;;;17.00;99.90;;;;;;5032021;28;20204;-73
2023/07/05 02:29:58;;;;;;;7.35;4.72;;;17.00;99.90;;;;;;5031247;28;20299;-73
2023/07/05 02:32:33;;;;;;;7.78;4.32;;;17.00;99.90;;;;;;5031665;28;20505;-74
2023/07/05 02:35:00;;;;;;;6.53;4.20;;;17.00;99.90;;;;;;5025033;28;20196;-75
2023/07/05 02:37:26;;;;;;;6.15;4.25;;;17.00;99.90;;;;;;5031353;28;20588;-74
2023/07/05 02:39:53;;;;;;;13.05;4.60;;;17.00;99.90;;;;;;5041848;28;20264;-75
2023/07/05 02:42:19;;;;;;;6.82;4.20;;;16.90;99.90;;;;;;5031466;28;20231;-73
2023/07/05 02:44:48;;;;;;;7.28;3.92;;;16.90;99.90;;;;;;5029127;28;20256;-72
2023/07/05 02:47:15;;;;;;;6.82;4.43;;;16.90;99.90;;;;;;5020211;28;20556;-74
2023/07/05 02:49:41;;;;;;;11.07;4.53;;;16.90;99.90;;;;;;5029703;28;20208;-74
2023/07/05 02:52:06;;;;;;;8.07;4.43;;;16.90;99.90;;;;;;5030947;28;20227;-74
2023/07/05 02:54:32;;;;;;;7.90;4.40;;;16.80;99.90;;;;;;5030717;28;20254;-74
2023/07/05 02:56:58;;;;;;;9.18;4.03;;;16.90;99.90;;;;;;5030822;28;20251;-74
2023/07/05 02:59:23;;;;;;;8.75;3.95;;;16.70;99.90;;;;;;5031012;28;20183;-75
2023/07/05 03:01:49;;;;;;;6.35;4.15;;;16.80;99.90;;;;;;5032584;28;20187;-74
2023/07/05 03:04:15;;;;;;;9.48;4.65;;;16.80;99.90;;;;;;5031721;28;20283;-74
2023/07/05 03:06:41;;;;;;;7.55;4.38;;;16.80;99.90;;;;;;5029815;28;20615;-75
2023/07/05 03:09:07;;;;;;;7.68;4.60;;;16.90;99.90;;;;;;5037385;28;20205;-74
2023/07/05 03:11:33;;;;;;;6.38;4.00;;;16.80;99.90;;;;;;5031391;28;20211;-73
2023/07/05 03:13:58;;;;;;;6.25;3.97;;;16.80;99.90;;;;;;5034404;28;20250;-75
2023/07/05 03:16:24;;;;;;;9.63;4.30;;;16.80;99.90;;;;;;5030475;28;20196;-74
2023/07/05 03:18:50;;;;;;;7.38;4.13;;;16.90;99.90;;;;;;5030025;28;20196;-74
2023/07/05 03:21:15;;;;;;;6.85;4.18;;;16.80;99.90;;;;;;5030807;28;20560;-74
2023/07/05 03:23:41;;;;;;;9.35;4.00;;;16.80;99.90;;;;;;5030354;28;20212;-73
2023/07/05 03:26:08;;;;;;;7.57;4.13;;;16.80;99.90;;;;;;5033788;28;20255;-76
2023/07/05 03:28:36;;;;;;;7.22;4.10;;;16.80;99.90;;;;;;5030447;28;20196;-74
2023/07/05 03:31:05;;;;;;;6.75;5.18;;;16.90;99.90;;;;;;5032336;28;20302;-74
2023/07/05 03:33:32;;;;;;;6.18;4.35;;;16.90;99.90;;;;;;5032342;28;20699;-72
2023/07/05 03:35:59;;;;;;;7.75;4.72;;;16.90;99.90;;;;;;5033183;28;20203;-74
2023/07/05 03:38:26;;;;;;;6.50;4.35;;;17.00;99.90;;;;;;5031990;28;20181;-74
2023/07/05 03:41:00;;;;;;;6.22;4.07;;;17.00;99.90;;;;;;5031724;28;20181;-74
2023/07/05 03:43:26;;;;;;;7.82;4.63;;;17.00;99.90;;;;;;5031195;28;20258;-73
2023/07/05 03:45:53;;;;;;;8.05;4.30;;;17.00;99.90;;;;;;5030626;28;20236;-75
2023/07/05 03:48:20;;;;;;;8.70;4.38;;;17.10;99.90;;;;;;5030766;28;20210;-75
2023/07/05 03:50:46;;;;;;;8.38;4.93;;;17.10;99.90;;;;;;5030469;28;20601;-75
2023/07/05 03:53:12;;;;;;;7.63;4.47;;;17.20;99.90;;;;;;5034802;28;20181;-73
2023/07/05 03:55:38;;;;;;;6.55;4.45;;;17.50;99.90;;;;;;5034175;28;20756;-74
2023/07/05 03:58:03;;;;;;;9.10;5.23;;;17.50;99.90;;;;;;5031363;28;20441;-75
2023/07/05 04:00:29;;;;;;;9.23;4.93;;;17.50;99.90;;;;;;5033049;28;20204;-76
2023/07/05 04:02:55;;;;;;;10.80;5.07;;;17.60;99.90;;;;;;5039521;28;20203;-75
2023/07/05 04:05:21;;;;;;;7.38;4.03;;;17.80;99.90;;;;;;5034898;28;20258;-75
2023/07/05 04:07:47;;;;;;;9.05;4.95;;;18.30;99.90;;;;;;5030085;28;20840;-75
2023/07/05 04:10:12;;;;;;;9.85;4.97;;;18.50;99.90;;;;;;5030373;28;20298;-74
2023/07/05 04:12:38;;;;;;;11.20;5.13;;;18.30;99.90;;;;;;5028212;28;20204;-74
2023/07/05 04:15:04;;;;;;;7.78;4.32;;;18.40;99.90;;;;;;5028586;28;20219;-75
2023/07/05 04:17:31;;;;;;;8.25;4.53;;;18.30;99.90;;;;;;5030932;28;20203;-75
2023/07/05 04:19:56;;;;;;;7.50;4.50;;;18.00;99.90;;;;;;5029613;28;20187;-75
2023/07/05 04:22:22;;;;;;;6.55;4.63;;;18.00;99.90;;;;;;5032075;28;20754;-74
2023/07/05 04:24:48;;;;;;;9.65;4.65;;;17.80;99.90;;;;;;5028912;28;20216;-74
2023/07/05 04:27:17;;;;;;;7.00;4.22;;;17.90;99.90;;;;;;5029582;28;20284;-76
2023/07/05 04:29:43;;;;;;;6.13;4.28;;;18.00;99.90;;;;;;5030696;28;20208;-75
2023/07/05 04:32:08;;;;;;;8.50;4.38;;;18.00;99.90;;;;;;5032709;28;20654;-76
2023/07/05 04:34:34;;;;;;;9.68;4.93;;;18.00;99.90;;;;;;5030372;28;20214;-75
2023/07/05 04:37:00;;;;;;;8.02;4.35;;;17.90;99.90;;;;;;5029308;28;20200;-75
2023/07/05 04:39:25;;;;;;;9.00;5.18;;;18.20;99.90;;;;;;5032634;28;20326;-75
2023/07/05 04:41:51;;;;;;;6.20;4.72;;;18.20;99.90;;;;;;5032890;28;20251;-74
2023/07/05 04:44:16;;;;;;;7.97;4.57;;;18.40;99.90;;;;;;5032995;28;20211;-75
2023/07/05 04:46:42;;;;;;;5.90;4.25;;;18.70;99.90;;;;;;5030833;28;20173;-74
2023/07/05 04:49:08;;;;;;;6.95;4.43;;;18.40;99.90;;;;;;5032327;28;20204;-75
2023/07/05 04:51:33;;;;;;;10.65;4.30;;;18.90;99.90;;;;;;5027725;28;20208;-75
2023/07/05 04:54:00;;;;;;;8.55;4.93;;;19.60;99.90;;;;;;5029305;28;20578;-75
2023/07/05 04:56:26;;;;;;;5.70;4.32;;;20.00;99.90;;;;;;5029768;28;20176;-73
2023/07/05 04:58:51;;;;;;;7.55;3.95;;;20.70;99.90;;;;;;5035011;28;20184;-75
2023/07/05 05:01:18;;;;;;;7.80;4.32;;;20.60;99.90;;;;;;5030174;28;20752;-74
2023/07/05 05:03:44;;;;;;;6.90;4.90;;;19.60;99.90;;;;;;5030784;28;20212;-75
2023/07/05 05:06:10;;;;;;;5.25;4.00;;;19.00;99.90;;;;;;5030221;28;20200;-75
2023/07/05 05:08:36;;;;;;;6.25;4.60;;;18.50;99.90;;;;;;5033595;28;20206;-74
2023/07/05 05:11:03;;;;;;;8.98;5.45;;;18.40;99.90;;;;;;5041077;28;20191;-74
2023/07/05 05:13:32;;;;;;;7.70;4.35;;;18.20;99.90;;;;;;5032483;28;20254;-75
2023/07/05 05:15:58;;;;;;;5.03;4.53;;;18.30;99.90;;;;;;5033380;28;20283;-76
2023/07/05 05:18:27;;;;;;;7.35;4.15;;;18.50;99.90;;;;;;5025109;28;20251;-75
2023/07/05 05:20:53;;;;;;;8.50;5.00;;;18.80;99.90;;;;;;5028160;28;20584;-75
2023/07/05 05:23:19;;;;;;;6.88;4.65;;;18.90;99.90;;;;;;5035743;28;20198;-76
2023/07/05 05:25:46;;;;;;;10.10;4.55;;;19.20;99.90;;;;;;5032853;28;20679;-75
2023/07/05 05:28:13;;;;;;;6.70;4.40;;;18.90;99.90;;;;;;5033514;28;20263;-75
2023/07/05 05:30:40;;;;;;;6.22;4.10;;;19.00;99.90;;;;;;5032184;28;20357;-74
2023/07/05 05:33:06;;;;;;;7.60;4.43;;;18.90;99.90;;;;;;5031725;28;20215;-75
2023/07/05 05:35:32;;;;;;;7.45;4.80;;;18.80;99.90;;;;;;5030993;28;20559;-76
2023/07/05 05:37:58;;;;;;;6.07;4.20;;;19.00;99.90;;;;;;5031261;28;20719;-76
2023/07/05 05:40:24;;;;;;;8.05;4.60;;;19.00;99.90;;;;;;5029533;28;20346;-75
2023/07/05 05:42:50;;;;;;;8.57;4.65;;;19.40;99.90;;;;;;5029544;28;20212;-75
2023/07/05 05:45:15;;;;;;;7.85;5.35;;;20.00;99.90;;;;;;5029901;28;20263;-74
2023/07/05 05:47:41;;;;;;;10.52;4.93;;;19.90;99.90;;;;;;5037005;28;20728;-75
2023/07/05 05:50:07;;;;;;;10.57;4.68;;;19.90;99.90;;;;;;5036326;28;20785;-76
2023/07/05 05:52:34;;;;;;;8.30;5.60;;;19.70;99.90;;;;;;5036193;28;20266;-77
2023/07/05 05:55:00;;;;;;;13.18;5.78;;;19.70;99.90;;;;;;5038296;28;20208;-74
2023/07/05 05:57:26;;;;;;;8.15;5.70;;;19.50;99.90;;;;;;5039597;28;20262;-75
2023/07/05 05:59:52;;;;;;;8.15;5.88;;;19.40;99.90;;;;;;5039302;28;20664;-76
2023/07/05 06:02:19;;;;;;;11.02;4.72;;;19.40;99.90;;;;;;5037647;28;20172;-74
2023/07/05 06:04:44;;;;;;;10.68;5.03;;;19.20;99.90;;;;;;5036750;28;20193;-75
2023/07/05 06:07:10;;;;;;;7.97;5.50;;;19.10;99.90;;;;;;5033832;28;20557;-77
2023/07/05 06:09:48;;;;;;;7.15;4.32;;;19.10;99.90;;;;;;5033566;28;20633;-76
2023/07/05 06:12:14;;;;;;;8.60;5.25;;;19.10;99.90;;;;;;5034628;28;20207;-76
2023/07/05 06:14:46;;;;;;;9.07;5.70;;;19.10;99.90;;;;;;5034087;28;20220;-75
2023/07/05 06:17:12;;;;;;;9.90;5.18;;;19.20;99.90;;;;;;5031839;28;20534;-74
2023/07/05 06:19:38;;;;;;;7.38;5.32;;;19.20;99.90;;;;;;5034613;28;20231;-76
2023/07/05 06:22:05;;;;;;;8.93;5.00;;;19.20;99.90;;;;;;5033962;28;20741;-75
2023/07/05 06:24:31;;;;;;;14.70;6.38;;;19.40;99.90;;;;;;5031807;28;20212;-76
2023/07/05 06:26:58;;;;;;;10.27;5.32;;;19.40;99.90;;;;;;5041604;28;20220;-75
2023/07/05 06:29:24;;;;;;;9.30;5.70;;;19.30;99.90;;;;;;5036708;28;20306;-76
2023/07/05 06:31:49;;;;;;;9.50;6.20;;;19.30;99.90;;;;;;5036863;28;20234;-76
2023/07/05 06:34:15;;;;;;;20.98;7.45;;;19.30;99.90;;;;;;5036443;28;20216;-76
2023/07/05 06:36:41;;;;;;;9.63;5.65;;;19.40;99.90;;;;;;5035886;28;20212;-73
2023/07/05 06:39:07;;;;;;;11.73;5.78;;;19.40;99.90;;;;;;5036733;28;20231;-76
2023/07/05 06:41:32;;;;;;;10.13;5.60;;;19.50;99.90;;;;;;5036394;28;20562;-76
2023/07/05 06:43:58;;;;;;;11.82;6.68;;;19.60;99.90;;;;;;5035993;28;20196;-75
2023/07/05 06:46:24;;;;;;;10.68;6.38;;;19.60;99.90;;;;;;5033188;28;20204;-76
2023/07/05 06:48:50;;;;;;;10.07;6.35;;;19.80;99.90;;;;;;5035865;28;20646;-76
2023/07/05 06:51:16;;;;;;;10.98;6.40;;;19.90;99.90;;;;;;5032597;28;20216;-75
2023/07/05 06:53:43;;;;;;;9.15;6.65;;;20.10;99.90;;;;;;5031256;28;20208;-75
2023/07/05 06:56:11;;;;;;;9.60;7.10;;;20.20;99.90;;;;;;5033539;28;20232;-75
2023/07/05 06:58:37;;;;;;;12.25;7.80;;;20.40;99.90;;;;;;5031863;28;20208;-75
2023/07/05 07:01:03;;;;;;;15.52;8.05;;;20.90;99.90;;;;;;5031752;28;20296;-76
2023/07/05 07:03:30;;;;;;;12.70;7.93;;;21.20;99.90;;;;;;5034646;28;20204;-74
2023/07/05 07:05:57;;;;;;;12.93;7.07;;;21.30;99.90;;;;;;5034892;28;20263;-76
2023/07/05 07:08:29;;;;;;;12.65;7.40;;;21.40;99.90;;;;;;5034734;28;20168;-76
2023/07/05 07:10:54;;;;;;;13.63;8.07;;;21.10;99.90;;;;;;5036712;28;20208;-76
2023/07/05 07:13:20;;;;;;;17.40;8.00;;;21.00;99.90;;;;;;5035218;28;20317;-76
2023/07/05 07:15:46;;;;;;;10.52;7.32;;;21.40;99.90;;;;;;5033833;28;20212;-76
2023/07/05 07:18:11;;;;;;;14.68;7.82;;;21.70;99.90;;;;;;5037848;28;20231;-75
2023/07/05 07:20:38;;;;;;;14.57;8.10;;;22.20;99.90;;;;;;5033116;28;20258;-74
2023/07/05 07:23:04;;;;;;;16.77;8.68;;;22.80;99.90;;;;;;5031831;28;20651;-73
2023/07/05 07:25:30;;;;;;;16.40;8.65;;;23.20;99.90;;;;;;5034093;28;20211;-74
2023/07/05 07:27:55;;;;;;;11.63;8.25;;;23.40;99.90;;;;;;5033468;28;20263;-74
2023/07/05 07:30:21;;;;;;;18.10;9.50;;;22.80;99.90;;;;;;5031944;28;20266;-74
2023/07/05 07:32:47;;;;;;;14.75;9.02;;;22.90;99.90;;;;;;5025305;28;20213;-74
2023/07/05 07:35:13;;;;;;;18.95;9.13;;;22.80;99.90;;;;;;5031887;28;20266;-74
2023/07/05 07:37:40;;;;;;;14.48;9.18;;;23.00;99.90;;;;;;5030657;28;20323;-75
2023/07/05 07:40:06;;;;;;;12.80;8.90;;;23.10;99.90;;;;;;5031045;28;20212;-75
2023/07/05 07:42:33;;;;;;;14.75;9.23;;;22.80;99.90;;;;;;5034695;28;20214;-75
2023/07/05 07:44:59;;;;;;;14.27;9.02;;;22.80;99.90;;;;;;5039639;28;20644;-74
2023/07/05 07:47:24;;;;;;;13.07;9.65;;;22.70;99.90;;;;;;5038724;28;20222;-76
2023/07/05 07:49:50;;;;;;;14.82;10.32;;;22.60;99.90;;;;;;5034746;28;20549;-75
2023/07/05 07:52:18;;;;;;;13.93;10.68;;;22.70;99.90;;;;;;5035782;28;20219;-75
2023/07/05 07:54:44;;;;;;;13.88;9.05;;;22.70;99.90;;;;;;5032908;28;20290;-75
2023/07/05 07:57:09;;;;;;;15.00;9.93;;;22.50;99.90;;;;;;5029208;28;20283;-74
2023/07/05 07:59:35;;;;;;;16.55;10.77;;;22.60;99.90;;;;;;5034852;28;20212;-75
2023/07/05 08:02:02;;;;;;;14.23;10.55;;;22.80;99.90;;;;;;5032383;28;20283;-74
2023/07/05 08:04:28;;;;;;;18.63;10.88;;;22.90;99.90;;;;;;5029934;28;20212;-75
2023/07/05 08:06:54;;;;;;;14.10;10.65;;;23.00;99.90;;;;;;5032393;28;20212;-75
2023/07/05 08:09:22;;;;;;;16.73;11.73;;;23.40;99.90;;;;;;5031739;28;20710;-75
2023/07/05 08:11:49;;;;;;;14.18;10.90;;;23.80;99.90;;;;;;5027705;28;20278;-73
2023/07/05 08:14:17;;;;;;;15.43;11.40;;;23.90;99.90;;;;;;5031684;28;20219;-74
2023/07/05 08:16:44;;;;;;;14.32;10.93;;;23.80;99.90;;;;;;5030750;28;20216;-75
2023/07/05 08:19:10;;;;;;;14.82;12.05;;;23.70;99.90;;;;;;5029792;28;20220;-74
2023/07/05 08:21:36;;;;;;;17.33;10.85;;;23.60;99.90;;;;;;5032263;28;20208;-75
2023/07/05 08:24:03;;;;;;;14.82;11.52;;;23.40;99.90;;;;;;5030219;28;20216;-76
2023/07/05 08:26:29;;;;;;;16.63;11.85;;;23.00;99.90;;;;;;5036607;28;20864;-75
2023/07/05 08:28:57;;;;;;;19.17;12.38;;;22.90;99.90;;;;;;5035262;28;20271;-73
2023/07/05 08:31:23;;;;;;;18.67;12.10;;;22.70;99.90;;;;;;5034031;28;20215;-76
2023/07/05 08:33:49;;;;;;;18.17;12.32;;;22.70;99.90;;;;;;5032085;28;20845;-74
2023/07/05 08:36:14;;;;;;;16.52;11.20;;;22.70;99.90;;;;;;5034130;28;20226;-75
2023/07/05 08:38:43;;;;;;;22.88;12.82;;;22.60;99.90;;;;;;5031619;28;20287;-75
2023/07/05 08:41:37;;;;;;;14.35;11.73;;;22.50;99.90;;;;;;5035755;28;20646;-75
2023/07/05 08:44:39;;;;;;;28.13;18.23;;;22.50;99.90;;;;;;5031836;28;20424;-75
2023/07/05 08:47:19;;;;;;;19.40;13.68;;;22.70;99.90;;;;;;5032668;28;20736;-76
2023/07/05 08:49:48;;;;;;;22.60;12.52;;;22.90;99.90;;;;;;5030617;28;20270;-76
2023/07/05 08:52:27;;;;;;;16.25;11.55;;;23.10;99.90;;;;;;5030035;28;20208;-75
2023/07/05 08:55:00;;;;;;;18.17;12.55;;;23.20;99.90;;;;;;5026370;28;20262;-75
2023/07/05 08:57:54;;;;;;;16.15;11.90;;;23.50;99.90;;;;;;5033682;28;20257;-75
2023/07/05 09:00:45;;;;;;;17.90;11.73;;;23.40;99.90;;;;;;5036066;28;20238;-76
2023/07/05 09:03:12;;;;;;;70.20;46.05;;;23.50;99.90;;;;;;5034247;28;20233;-75
2023/07/05 09:05:43;;;;;;;17.20;12.25;;;23.50;99.90;;;;;;5035797;28;20244;-76
2023/07/05 09:08:09;;;;;;;16.95;11.75;;;23.50;99.90;;;;;;5039363;28;20183;-76
2023/07/05 09:10:55;;;;;;;14.45;10.93;;;23.60;99.90;;;;;;5031985;28;20212;-76
2023/07/05 09:13:36;;;;;;;19.80;12.65;;;23.60;99.90;;;;;;5045834;28;20218;-76
2023/07/05 09:16:18;;;;;;;16.67;10.98;;;23.70;99.90;;;;;;5032819;28;20203;-74
2023/07/05 09:18:50;;;;;;;13.40;9.57;;;23.60;99.90;;;;;;5031497;28;20634;-76
2023/07/05 09:21:28;;;;;;;13.05;10.27;;;23.60;99.90;;;;;;5034754;28;20204;-75
2023/07/05 09:24:02;;;;;;;17.30;11.75;;;23.60;99.90;;;;;;5033755;28;20211;-75
2023/07/05 09:26:37;;;;;;;21.27;11.05;;;23.70;99.90;;;;;;5031619;28;20203;-76
2023/07/05 09:29:27;;;;;;;11.70;9.43;;;23.80;99.90;;;;;;5035371;28;20180;-75
2023/07/05 09:31:54;;;;;;;14.15;9.20;;;23.70;99.90;;;;;;5030573;28;20216;-74
2023/07/05 09:34:34;;;;;;;13.15;8.98;;;23.60;99.90;;;;;;5029085;28;20623;-73
2023/07/05 09:37:10;;;;;;;11.68;8.00;;;23.40;99.90;;;;;;5031969;28;20236;-74
2023/07/05 09:39:45;;;;;;;13.38;9.20;;;23.40;99.90;;;;;;5040053;28;20258;-75
2023/07/05 09:42:18;;;;;;;14.45;9.02;;;23.60;99.90;;;;;;5042606;28;20202;-74
2023/07/05 09:44:44;;;;;;;13.10;9.05;;;23.70;99.90;;;;;;5036932;28;20231;-74
2023/07/05 09:47:10;;;;;;;14.52;9.48;;;23.60;99.90;;;;;;5033360;28;20177;-75
2023/07/05 09:49:36;;;;;;;13.38;8.45;;;23.50;99.90;;;;;;5038311;28;20250;-74
2023/07/05 09:52:04;;;;;;;11.52;8.60;;;23.70;99.90;;;;;;5036603;28;20224;-74
2023/07/05 09:54:31;;;;;;;14.65;9.68;;;24.00;99.90;;;;;;5032807;28;20232;-74
2023/07/05 09:57:06;;;;;;;15.50;9.55;;;24.20;99.90;;;;;;5035013;28;20216;-74
2023/07/05 09:59:36;;;;;;;13.80;8.40;;;24.40;99.90;;;;;;5023028;28;20252;-74
2023/07/05 10:02:12;;;;;;;10.82;8.18;;;24.40;99.90;;;;;;5036201;28;20177;-74
2023/07/05 10:04:49;;;;;;;9.70;7.85;;;24.60;99.90;;;;;;5026671;28;20222;-73
2023/07/05 10:07:27;;;;;;;12.98;7.88;;;24.30;99.90;;;;;;5034243;28;20295;-74
2023/07/05 10:10:14;;;;;;;11.88;9.40;;;24.10;99.90;;;;;;5033786;28;20702;-74
2023/07/05 10:12:42;;;;;;;12.07;7.22;;;24.00;99.90;;;;;;5031647;28;20211;-75
2023/07/05 10:15:23;;;;;;;11.00;7.07;;;24.30;99.90;;;;;;5033039;28;20289;-73
2023/07/05 10:17:55;;;;;;;13.07;7.80;;;24.40;99.90;;;;;;5032817;28;20220;-75
2023/07/05 10:20:41;;;;;;;12.45;7.40;;;24.50;99.90;;;;;;5043610;28;20171;-75
2023/07/05 10:23:17;;;;;;;10.65;7.28;;;24.60;99.90;;;;;;5044656;28;20195;-74
2023/07/05 10:25:44;;;;;;;9.90;6.60;;;24.80;99.90;;;;;;5032564;28;20196;-75
2023/07/05 10:28:16;;;;;;;10.05;6.85;;;25.00;99.90;;;;;;5034061;28;20216;-75
2023/07/05 10:30:56;;;;;;;8.10;6.82;;;25.30;99.90;;;;;;5027717;28;20208;-75
2023/07/05 10:33:25;;;;;;;11.27;7.20;;;25.40;99.90;;;;;;5030561;28;20622;-75
2023/07/05 10:36:09;;;;;;;9.23;6.80;;;25.50;99.90;;;;;;5034004;28;20215;-75
2023/07/05 10:38:49;;;;;;;9.85;6.68;;;25.40;99.90;;;;;;5029362;28;20218;-76
2023/07/05 10:41:21;;;;;;;8.70;5.65;;;25.40;99.90;;;;;;5037127;28;20171;-74
2023/07/05 10:44:01;;;;;;;6.85;5.50;;;25.10;99.90;;;;;;5034925;28;20200;-75
2023/07/05 10:46:27;;;;;;;13.38;8.13;;;25.00;99.90;;;;;;5032526;28;20261;-75
2023/07/05 10:48:54;;;;;;;10.35;6.22;;;25.10;99.90;;;;;;5034699;28;20698;-74
2023/07/05 10:51:25;;;;;;;8.10;5.45;;;25.30;99.90;;;;;;5031228;28;20224;-74
2023/07/05 10:54:45;;;;;;;9.73;6.85;;;25.50;99.90;;;;;;5031399;28;20303;-75
2023/07/05 10:57:31;;;;;;;8.75;6.03;;;25.50;99.90;;;;;;4964380;28;20218;-73
2023/07/05 11:00:04;;;;;;;8.68;5.53;;;25.80;99.90;;;;;;5028411;28;20635;-73
2023/07/05 11:02:45;;;;;;;7.07;5.20;;;25.40;99.90;;;;;;5040034;28;20229;-74
2023/07/05 11:05:46;;;;;;;6.72;4.60;;;24.90;99.90;;;;;;5037489;28;20196;-73
2023/07/05 11:08:35;;;;;;;7.32;4.93;;;24.80;99.90;;;;;;5038706;28;20219;-73
2023/07/05 11:11:24;;;;;;;6.30;4.60;;;24.60;99.90;;;;;;5035027;28;20219;-74
2023/07/05 11:13:52;;;;;;;6.60;5.20;;;24.50;99.90;;;;;;5028654;28;20227;-76
2023/07/05 11:16:29;;;;;;;5.32;4.40;;;24.30;99.90;;;;;;5034558;28;20201;-74
2023/07/05 11:19:03;;;;;;;6.75;4.30;;;24.40;99.90;;;;;;5032643;28;20203;-75
2023/07/05 11:21:32;;;;;;;7.68;3.97;;;24.40;99.90;;;;;;5033329;28;20253;-74
2023/07/05 11:23:58;;;;;;;6.43;3.80;;;24.60;99.90;;;;;;5028620;28;20216;-74
2023/07/05 11:26:38;;;;;;;5.65;4.15;;;25.00;99.90;;;;;;5032375;28;20180;-74
2023/07/05 11:29:53;;;;;;;5.82;4.18;;;25.30;99.90;;;;;;5022712;28;20652;-74
2023/07/05 11:32:21;;;;;;;6.75;3.60;;;24.90;99.90;;;;;;5038333;28;20231;-74
2023/07/05 11:34:52;;;;;;;4.78;3.50;;;24.70;99.90;;;;;;5036233;28;20204;-74
2023/07/05 11:37:21;;;;;;;4.78;3.88;;;24.40;99.90;;;;;;5041282;28;20208;-75
2023/07/05 11:39:48;;;;;;;6.93;3.63;;;24.40;99.90;;;;;;5033087;28;20224;-75
2023/07/05 11:42:17;;;;;;;6.55;3.72;;;24.50;99.90;;;;;;5037950;28;20307;-75
2023/07/05 11:44:48;;;;;;;4.30;3.30;;;24.40;99.90;;;;;;5037516;28;20244;-74
2023/07/05 11:47:22;;;;;;;7.70;3.70;;;24.40;99.90;;;;;;5029751;28;20280;-75
2023/07/05 11:49:55;;;;;;;4.57;3.45;;;24.70;99.90;;;;;;5046748;28;20212;-74
2023/07/05 11:52:31;;;;;;;4.53;3.15;;;24.70;99.90;;;;;;5036834;28;20669;-74
2023/07/05 11:55:05;;;;;;;5.82;4.05;;;24.90;99.90;;;;;;5030437;28;20763;-74
2023/07/05 11:57:50;;;;;;;6.82;3.88;;;25.00;99.90;;;;;;5032481;28;20215;-75
2023/07/05 12:00:26;;;;;;;6.03;3.50;;;25.00;99.90;;;;;;5034240;28;20694;-74
2023/07/05 12:03:01;;;;;;;4.28;3.63;;;25.20;99.90;;;;;;5030691;28;20212;-74
2023/07/05 12:05:29;;;;;;;6.78;3.10;;;25.40;99.90;;;;;;5029988;28;20184;-74
2023/07/05 12:08:05;;;;;;;4.90;3.17;;;25.40;99.90;;;;;;5030427;28;20176;-74
2023/07/05 12:10:34;;;;;;;3.42;2.83;;;25.20;99.90;;;;;;5030191;28;20204;-75
2023/07/05 12:13:01;;;;;;;4.10;2.58;;;25.40;99.90;;;;;;5033505;28;20205;-74
2023/07/05 12:15:27;;;;;;;4.65;2.80;;;25.30;99.90;;;;;;5046331;23;21619;-72
2023/07/05 12:17:53;;;;;;;4.28;2.72;;;25.50;99.90;;;;;;5027475;28;20215;-71
2023/07/05 12:20:25;;;;;;;5.03;2.90;;;25.60;99.90;;;;;;5018377;28;20189;-71
2023/07/05 12:22:52;;;;;;;7.72;2.90;;;25.60;99.90;;;;;;5018418;28;20176;-72
2023/07/05 12:25:19;;;;;;;4.43;3.00;;;25.90;99.90;;;;;;5019576;28;20928;-71
2023/07/05 12:27:45;;;;;;;3.95;2.53;;;25.90;99.90;;;;;;5021557;28;20636;-70
2023/07/05 12:30:18;;;;;;;3.78;2.45;;;25.70;99.90;;;;;;5022886;28;20309;-68
2023/07/05 12:32:55;;;;;;;6.40;2.42;;;25.60;99.90;;;;;;5020310;28;20217;-71
2023/07/05 12:35:24;;;;;;;3.45;2.45;;;25.70;99.90;;;;;;5021346;28;20247;-71
2023/07/05 12:37:51;;;;;;;4.07;2.42;;;25.90;99.90;;;;;;5021861;28;20180;-71
2023/07/05 12:40:21;;;;;;;3.40;2.78;;;25.80;99.90;;;;;;5025110;28;20205;-69
2023/07/05 12:42:51;;;;;;;3.13;2.58;;;25.80;99.90;;;;;;5021139;28;20235;-71
2023/07/05 12:45:22;;;;;;;3.72;2.83;;;25.70;99.90;;;;;;5019737;28;20208;-71
2023/07/05 12:47:48;;;;;;;6.22;4.70;;;25.80;99.90;;;;;;5019830;28;20236;-71
2023/07/05 12:50:21;;;;;;;6.97;3.30;;;25.80;99.90;;;;;;5023142;28;20246;-71
2023/07/05 12:53:13;;;;;;;5.70;2.90;;;25.70;99.90;;;;;;5023079;28;20201;-70
2023/07/05 12:55:40;;;;;;;2.83;2.17;;;25.80;99.90;;;;;;5019703;28;20707;-71